createdAt,value
2022-10-13T00:01:18.281Z,15.93
2022-10-13T00:03:48.209Z,15.07
2022-10-13T00:06:21.284Z,14.38
2022-10-13T00:08:48.184Z,15.25
2022-10-13T00:11:24.181Z,14.38
2022-10-13T00:13:55.037Z,13.88
2022-10-13T00:16:22.145Z,12.27
2022-10-13T00:18:49.579Z,12.68
2022-10-13T00:21:22.257Z,14.23
2022-10-13T00:23:48.937Z,13.05
2022-10-13T00:26:20.215Z,13.07
2022-10-13T00:28:52.061Z,12.68
2022-10-13T00:31:25.607Z,13.43
2022-10-13T00:33:52.952Z,14.07
2022-10-13T00:36:21.393Z,13.82
2022-10-13T00:38:48.302Z,15.05
2022-10-13T00:41:15.178Z,13.68
2022-10-13T00:43:57.129Z,14.43
2022-10-13T00:46:25.845Z,13.50
2022-10-13T00:49:00.611Z,13.40
2022-10-13T00:51:30.492Z,13.38
2022-10-13T00:53:59.078Z,15.20
2022-10-13T00:56:27.610Z,13.85
2022-10-13T00:58:55.876Z,13.52
2022-10-13T01:01:22.474Z,13.00
2022-10-13T01:03:48.902Z,14.38
2022-10-13T01:06:19.780Z,11.52
2022-10-13T01:08:49.080Z,11.40
2022-10-13T01:11:56.871Z,13.30
2022-10-13T01:14:36.177Z,12.02
2022-10-13T01:17:13.246Z,13.02
2022-10-13T01:20:01.598Z,12.50
2022-10-13T01:22:45.557Z,12.75
2022-10-13T01:25:30.616Z,14.60
2022-10-13T01:28:28.383Z,14.98
2022-10-13T01:31:20.829Z,14.82
2022-10-13T01:33:55.696Z,15.18
2022-10-13T01:36:37.220Z,14.35
2022-10-13T01:39:13.965Z,14.10
2022-10-13T01:41:45.968Z,15.40
2022-10-13T01:44:18.292Z,14.93
2022-10-13T01:46:53.826Z,14.57
2022-10-13T01:49:24.468Z,13.85
2022-10-13T01:51:51.800Z,14.48
2022-10-13T01:54:18.237Z,14.57
2022-10-13T01:56:55.309Z,14.23
2022-10-13T01:59:24.358Z,15.20
2022-10-13T02:02:26.093Z,15.02
2022-10-13T02:05:04.577Z,13.75
2022-10-13T02:07:43.820Z,13.40
2022-10-13T02:10:19.563Z,15.25
2022-10-13T02:13:00.952Z,14.75
2022-10-13T02:15:34.941Z,13.63
2022-10-13T02:18:04.759Z,13.88
2022-10-13T02:20:31.973Z,12.57
2022-10-13T02:23:07.579Z,13.75
2022-10-13T02:25:35.932Z,13.98
2022-10-13T02:28:02.817Z,12.27
2022-10-13T02:30:33.037Z,13.63
2022-10-13T02:33:00.612Z,14.23
2022-10-13T02:35:27.078Z,12.27
2022-10-13T02:37:53.525Z,12.38
2022-10-13T02:40:19.965Z,11.65
2022-10-13T02:42:46.372Z,11.60
2022-10-13T02:45:12.778Z,12.30
2022-10-13T02:47:39.183Z,11.32
2022-10-13T02:50:06.057Z,13.00
2022-10-13T02:52:32.529Z,12.63
2022-10-13T02:54:58.957Z,12.70
2022-10-13T02:57:25.409Z,13.38
2022-10-13T02:59:52.244Z,14.07
2022-10-13T03:02:19.413Z,13.48
2022-10-13T03:04:47.023Z,14.52
2022-10-13T03:07:13.473Z,13.80
2022-10-13T03:09:39.882Z,15.07
2022-10-13T03:12:06.694Z,16.67
2022-10-13T03:14:33.629Z,15.63
2022-10-13T03:17:00.107Z,15.82
2022-10-13T03:19:26.695Z,14.07
2022-10-13T03:21:53.181Z,15.45
2022-10-13T03:24:19.642Z,21.05
2022-10-13T03:26:46.036Z,18.55
2022-10-13T03:29:18.205Z,16.50
2022-10-13T03:31:44.891Z,15.90
2022-10-13T03:34:12.755Z,16.55
2022-10-13T03:36:39.562Z,16.35
2022-10-13T03:39:06.572Z,15.35
2022-10-13T03:41:33.063Z,14.48
2022-10-13T03:43:59.489Z,13.88
2022-10-13T03:46:29.270Z,14.90
2022-10-13T03:51:24.461Z,14.38
2022-10-13T03:53:52.591Z,14.07
2022-10-13T03:56:22.165Z,13.18
2022-10-13T03:58:55.482Z,12.88
2022-10-13T04:01:24.034Z,15.02
2022-10-13T04:03:52.785Z,15.43
2022-10-13T04:06:19.270Z,15.32
2022-10-13T04:08:46.033Z,14.50
2022-10-13T04:11:14.741Z,14.88
2022-10-13T04:13:42.536Z,13.75
2022-10-13T04:16:13.696Z,14.63
2022-10-13T04:18:44.462Z,12.63
2022-10-13T04:21:14.767Z,14.80
2022-10-13T04:23:41.529Z,14.23
2022-10-13T04:26:14.247Z,14.43
2022-10-13T04:28:40.684Z,13.05
2022-10-13T04:31:07.335Z,13.25
2022-10-13T04:33:34.399Z,13.48
2022-10-13T04:36:04.361Z,13.10
2022-10-13T04:38:30.784Z,13.35
2022-10-13T04:40:57.200Z,12.77
2022-10-13T04:43:27.778Z,13.63
2022-10-13T04:46:00.649Z,13.82
2022-10-13T04:48:27.040Z,13.88
2022-10-13T04:51:08.080Z,12.98
2022-10-13T04:53:34.976Z,14.45
2022-10-13T04:56:03.919Z,13.90
2022-10-13T04:58:30.411Z,13.50
2022-10-13T05:01:01.995Z,14.13
2022-10-13T05:03:28.758Z,14.43
2022-10-13T05:05:55.241Z,14.10
2022-10-13T05:08:21.897Z,14.18
2022-10-13T05:11:02.138Z,14.38
2022-10-13T05:13:29.826Z,19.45
2022-10-13T05:15:58.900Z,16.70
2022-10-13T05:18:25.319Z,15.88
2022-10-13T05:20:51.749Z,18.08
2022-10-13T05:23:18.988Z,17.67
2022-10-13T05:25:45.396Z,17.40
2022-10-13T05:28:14.509Z,17.08
2022-10-13T05:30:41.012Z,15.63
2022-10-13T05:33:07.399Z,16.55
2022-10-13T05:35:33.830Z,16.77
2022-10-13T05:38:00.324Z,16.88
2022-10-13T05:40:28.348Z,16.58
2022-10-13T05:42:59.635Z,17.25
2022-10-13T05:45:29.378Z,17.05
2022-10-13T05:47:55.870Z,16.52
2022-10-13T05:50:22.408Z,17.40
2022-10-13T05:52:49.187Z,16.23
2022-10-13T05:55:17.811Z,16.60
2022-10-13T05:57:48.285Z,15.32
2022-10-13T06:00:16.949Z,14.57
2022-10-13T06:03:11.925Z,15.07
2022-10-13T06:05:47.304Z,16.08
2022-10-13T06:08:14.852Z,14.60
2022-10-13T06:10:43.583Z,15.75
2022-10-13T06:13:10.078Z,15.45
2022-10-13T06:15:36.637Z,14.30
2022-10-13T06:18:07.736Z,14.02
2022-10-13T06:20:34.144Z,15.07
2022-10-13T06:23:00.659Z,14.32
2022-10-13T06:25:27.143Z,13.15
2022-10-13T06:27:53.613Z,13.55
2022-10-13T06:30:20.034Z,14.35
2022-10-13T06:32:46.446Z,14.07
2022-10-13T06:35:12.830Z,14.73
2022-10-13T06:37:39.237Z,14.60
2022-10-13T06:40:10.352Z,14.38
2022-10-13T06:42:36.805Z,14.05
2022-10-13T06:45:10.099Z,12.75
2022-10-13T06:47:39.626Z,13.55
2022-10-13T06:50:06.372Z,12.02
2022-10-13T06:52:32.816Z,13.10
2022-10-13T06:54:59.207Z,13.13
2022-10-13T06:57:28.873Z,12.68
2022-10-13T06:59:57.272Z,14.98
2022-10-13T07:02:23.668Z,13.00
2022-10-13T07:04:50.317Z,14.43
2022-10-13T07:07:16.764Z,14.55
2022-10-13T07:09:44.818Z,14.05
2022-10-13T07:12:13.344Z,14.43
2022-10-13T07:14:43.009Z,16.52
2022-10-13T07:17:10.785Z,15.93
2022-10-13T07:19:37.237Z,17.30
2022-10-13T07:22:03.658Z,17.00
2022-10-13T07:24:30.178Z,18.63
2022-10-13T07:26:56.628Z,18.70
2022-10-13T07:29:23.056Z,16.70
2022-10-13T07:31:49.653Z,16.40
2022-10-13T07:34:16.079Z,17.67
2022-10-13T07:36:42.596Z,16.23
2022-10-13T07:39:09.706Z,16.77
2022-10-13T07:41:37.067Z,17.08
2022-10-13T07:44:03.661Z,14.52
2022-10-13T07:46:30.113Z,16.25
2022-10-13T07:48:56.511Z,14.68
2022-10-13T07:51:23.481Z,14.52
2022-10-13T07:53:50.109Z,15.18
2022-10-13T07:56:16.710Z,14.63
2022-10-13T07:58:45.646Z,14.00
2022-10-13T08:01:13.228Z,13.98
2022-10-13T08:03:41.994Z,14.48
2022-10-13T08:06:15.965Z,12.75
2022-10-13T08:08:42.426Z,12.52
2022-10-13T08:11:16.639Z,12.20
2022-10-13T08:13:48.061Z,12.48
2022-10-13T08:16:19.002Z,13.00
2022-10-13T08:18:45.969Z,12.82
2022-10-13T08:24:03.132Z,12.52
2022-10-13T08:26:29.596Z,11.52
2022-10-13T08:29:20.298Z,13.15
2022-10-13T08:31:43.776Z,12.38
2022-10-13T08:34:11.543Z,13.75
2022-10-13T08:36:38.868Z,11.68
2022-10-13T08:39:05.792Z,12.75
2022-10-13T08:41:40.475Z,11.05
2022-10-13T08:47:18.721Z,10.10
2022-10-13T08:49:46.165Z,10.95
2022-10-13T08:52:25.692Z,10.40
2022-10-13T08:54:54.274Z,11.07
2022-10-13T08:57:23.332Z,9.87
2022-10-13T08:59:50.201Z,9.80
2022-10-13T09:02:27.036Z,10.00
2022-10-13T09:04:54.121Z,10.32
2022-10-13T09:07:34.983Z,10.25
2022-10-13T09:10:01.455Z,9.43
2022-10-13T09:12:27.905Z,9.43
2022-10-13T09:15:12.885Z,9.30
2022-10-13T09:17:41.307Z,9.18
2022-10-13T09:20:25.355Z,8.70
2022-10-13T09:23:05.074Z,8.90
2022-10-13T09:25:47.346Z,9.70
2022-10-13T09:28:27.578Z,9.55
2022-10-13T09:31:18.311Z,9.95
2022-10-13T09:33:45.937Z,9.73
2022-10-13T09:36:16.592Z,10.95
2022-10-13T09:39:06.796Z,9.27
2022-10-13T09:41:34.891Z,8.77
2022-10-13T09:44:11.375Z,8.95
2022-10-13T09:46:46.345Z,9.07
2022-10-13T09:49:31.081Z,9.27
2022-10-13T09:52:12.816Z,9.00
2022-10-13T09:57:37.574Z,8.77
2022-10-13T10:00:22.031Z,8.30
2022-10-13T10:02:57.652Z,8.50
2022-10-13T10:05:43.027Z,10.15
2022-10-13T10:08:28.872Z,8.52
2022-10-13T10:11:02.499Z,8.43
2022-10-13T10:13:29.021Z,8.82
2022-10-13T10:16:05.389Z,8.25
2022-10-13T10:18:58.473Z,9.23
2022-10-13T10:21:43.818Z,7.80
2022-10-13T10:24:22.598Z,7.97
2022-10-13T10:27:08.111Z,8.52
2022-10-13T10:29:46.490Z,9.00
2022-10-13T10:32:26.957Z,8.05
2022-10-13T10:35:14.191Z,8.13
2022-10-13T10:38:08.372Z,8.75
2022-10-13T10:41:07.965Z,7.53
2022-10-13T10:43:56.221Z,7.93
2022-10-13T10:46:28.093Z,7.05
2022-10-13T10:48:59.292Z,6.70
2022-10-13T10:51:31.725Z,7.72
2022-10-13T10:54:17.112Z,7.35
2022-10-13T10:56:55.678Z,7.35
2022-10-13T10:59:55.480Z,7.10
2022-10-13T11:02:46.155Z,6.85
2022-10-13T11:05:13.780Z,6.88
2022-10-13T11:07:40.120Z,7.15
2022-10-13T11:10:18.817Z,7.70
2022-10-13T11:12:52.798Z,7.10
2022-10-13T11:15:25.183Z,6.45
2022-10-13T11:17:52.373Z,5.55
2022-10-13T11:20:21.550Z,6.35
2022-10-13T11:23:00.279Z,6.20
2022-10-13T11:25:35.655Z,6.20
2022-10-13T11:28:22.390Z,5.30
2022-10-13T11:30:50.362Z,6.25
2022-10-13T11:33:35.566Z,5.38
2022-10-13T11:36:31.550Z,5.10
2022-10-13T11:39:16.141Z,6.05
2022-10-13T11:42:06.899Z,5.57
2022-10-13T11:44:46.220Z,5.60
2022-10-13T11:47:45.105Z,5.28
2022-10-13T11:50:46.181Z,5.63
2022-10-13T11:53:27.473Z,5.80
2022-10-13T11:56:01.371Z,4.95
2022-10-13T11:58:30.143Z,4.47
2022-10-13T12:01:08.869Z,4.93
2022-10-13T12:03:38.752Z,4.20
2022-10-13T12:06:34.943Z,4.38
2022-10-13T12:09:16.572Z,4.50
2022-10-13T12:14:21.695Z,3.88
2022-10-13T12:19:25.805Z,4.55
2022-10-13T12:21:54.469Z,3.92
2022-10-13T12:24:26.413Z,3.88
2022-10-13T12:26:53.184Z,4.00
2022-10-13T12:29:26.369Z,3.17
2022-10-13T12:31:53.820Z,3.20
2022-10-13T12:34:27.787Z,3.25
2022-10-13T12:37:10.973Z,3.30
2022-10-13T12:39:39.169Z,3.30
2022-10-13T12:42:07.953Z,3.13
2022-10-13T12:47:03.926Z,2.60
2022-10-13T12:49:37.058Z,2.70
2022-10-13T12:52:23.496Z,3.08
2022-10-13T12:54:53.979Z,3.47
2022-10-13T12:57:35.941Z,3.25
2022-10-13T13:00:26.683Z,3.13
2022-10-13T13:02:54.669Z,3.37
2022-10-13T13:05:42.194Z,3.17
2022-10-13T13:08:32.757Z,3.58
2022-10-13T13:11:19.476Z,3.22
2022-10-13T13:13:47.405Z,3.20
2022-10-13T13:16:16.766Z,3.65
2022-10-13T13:18:44.630Z,3.72
2022-10-13T13:21:16.783Z,3.25
2022-10-13T13:23:51.092Z,3.70
2022-10-13T13:26:23.108Z,4.20
2022-10-13T13:28:51.814Z,4.75
2022-10-13T13:31:20.587Z,5.50
2022-10-13T13:33:47.868Z,4.80
2022-10-13T13:36:18.341Z,4.90
2022-10-13T13:38:46.959Z,5.63
2022-10-13T13:41:14.263Z,6.53
2022-10-13T13:43:41.107Z,6.55
2022-10-13T13:46:15.660Z,5.68
2022-10-13T13:48:42.298Z,6.95
2022-10-13T13:51:09.841Z,6.57
2022-10-13T13:53:36.741Z,6.88
2022-10-13T13:56:04.070Z,6.43
2022-10-13T13:58:30.725Z,6.80
2022-10-13T14:00:58.972Z,7.15
2022-10-13T14:03:25.484Z,6.80
2022-10-13T14:05:52.313Z,7.35
2022-10-13T14:08:18.813Z,7.93
2022-10-13T14:10:45.275Z,7.00
2022-10-13T14:13:11.733Z,8.10
2022-10-13T14:15:38.177Z,7.88
2022-10-13T14:18:04.662Z,7.63
2022-10-13T14:20:31.086Z,8.68
2022-10-13T14:22:57.630Z,7.88
2022-10-13T14:25:24.248Z,8.15
2022-10-13T14:27:50.737Z,7.30
2022-10-13T14:30:17.495Z,6.65
2022-10-13T14:32:44.080Z,7.75
2022-10-13T14:35:10.574Z,7.47
2022-10-13T14:37:37.293Z,8.25
2022-10-13T14:40:04.622Z,8.60
2022-10-13T14:42:32.122Z,8.05
2022-10-13T14:44:58.529Z,8.27
2022-10-13T14:47:25.056Z,8.40
2022-10-13T14:49:51.447Z,8.02
2022-10-13T14:52:17.944Z,7.93
2022-10-13T14:54:45.139Z,7.55
2022-10-13T14:57:15.596Z,8.82
2022-10-13T14:59:42.573Z,7.25
2022-10-13T15:02:13.145Z,8.65
2022-10-13T15:04:50.423Z,7.63
2022-10-13T15:07:18.404Z,8.10
2022-10-13T15:09:52.767Z,7.90
2022-10-13T15:12:28.042Z,8.05
2022-10-13T15:14:54.432Z,7.55
2022-10-13T15:17:20.822Z,7.57
2022-10-13T15:19:47.221Z,7.95
2022-10-13T15:22:13.856Z,8.38
2022-10-13T15:24:40.270Z,6.03
2022-10-13T15:27:06.674Z,7.00
2022-10-13T15:29:33.689Z,7.10
2022-10-13T15:32:11.754Z,7.15
2022-10-13T15:34:39.859Z,7.90
2022-10-13T15:37:06.961Z,7.22
2022-10-13T15:39:33.652Z,6.95
2022-10-13T15:42:00.043Z,7.38
2022-10-13T15:44:26.577Z,8.25
2022-10-13T15:47:07.357Z,7.40
2022-10-13T15:49:39.073Z,6.47
2022-10-13T15:52:05.683Z,7.70
2022-10-13T15:54:32.252Z,7.07
2022-10-13T15:56:58.678Z,7.18
2022-10-13T15:59:25.536Z,8.98
2022-10-13T16:01:52.070Z,9.02
2022-10-13T16:04:18.463Z,10.25
2022-10-13T16:06:44.873Z,10.50
2022-10-13T16:09:11.310Z,8.63
2022-10-13T16:11:37.846Z,7.75
2022-10-13T16:14:04.325Z,8.73
2022-10-13T16:16:30.781Z,10.73
2022-10-13T16:18:57.410Z,10.05
2022-10-13T16:21:25.954Z,7.82
2022-10-13T16:23:52.993Z,7.60
2022-10-13T16:26:19.721Z,8.32
2022-10-13T16:28:46.657Z,8.50
2022-10-13T16:31:15.172Z,8.65
2022-10-13T16:33:45.904Z,9.77
2022-10-13T16:36:15.237Z,7.60
2022-10-13T16:38:43.235Z,8.68
2022-10-13T16:41:13.870Z,16.83
2022-10-13T16:43:41.810Z,11.43
2022-10-13T16:46:09.801Z,8.02
2022-10-13T16:48:36.460Z,28.80
2022-10-13T16:51:08.837Z,14.73
2022-10-13T16:53:35.960Z,12.35
2022-10-13T16:56:06.627Z,16.55
2022-10-13T16:58:33.616Z,23.33
2022-10-13T17:01:09.433Z,14.80
2022-10-13T17:03:37.339Z,9.18
2022-10-13T17:06:04.631Z,16.73
2022-10-13T17:08:31.654Z,70.30
2022-10-13T17:11:01.773Z,33.88
2022-10-13T17:13:28.557Z,21.15
2022-10-13T17:15:56.079Z,9.15
2022-10-13T17:18:23.714Z,10.48
2022-10-13T17:20:52.388Z,24.05
2022-10-13T17:23:19.732Z,11.23
2022-10-13T17:25:46.268Z,11.82
2022-10-13T17:28:13.323Z,9.70
2022-10-13T17:30:39.881Z,10.05
2022-10-13T17:33:06.664Z,10.50
2022-10-13T17:35:33.609Z,9.90
2022-10-13T17:38:00.771Z,11.50
2022-10-13T17:40:27.197Z,12.57
2022-10-13T17:42:54.976Z,13.85
2022-10-13T17:45:22.817Z,15.55
2022-10-13T17:47:50.545Z,16.45
2022-10-13T17:50:18.208Z,16.40
2022-10-13T17:52:44.666Z,16.17
2022-10-13T17:55:11.138Z,13.30
2022-10-13T17:57:37.541Z,15.45
2022-10-13T18:00:05.808Z,24.58
2022-10-13T18:02:38.922Z,20.50
2022-10-13T18:05:05.469Z,16.02
2022-10-13T18:07:32.302Z,14.40
2022-10-13T18:09:58.726Z,12.80
2022-10-13T18:12:25.147Z,12.55
2022-10-13T18:14:51.532Z,17.27
2022-10-13T18:17:18.137Z,19.27
2022-10-13T18:19:44.880Z,10.98
2022-10-13T18:22:11.653Z,12.02
2022-10-13T18:24:38.504Z,11.48
2022-10-13T18:27:04.978Z,10.80
2022-10-13T18:29:36.177Z,11.35
2022-10-13T18:32:02.577Z,12.00
2022-10-13T18:34:29.020Z,11.52
2022-10-13T18:36:55.935Z,11.77
2022-10-13T18:39:25.542Z,11.50
2022-10-13T18:41:53.990Z,12.23
2022-10-13T18:44:20.963Z,10.80
2022-10-13T18:46:51.963Z,12.05
2022-10-13T18:49:21.332Z,12.13
2022-10-13T18:51:50.156Z,10.63
2022-10-13T18:54:16.557Z,10.05
2022-10-13T18:56:43.032Z,9.95
2022-10-13T18:59:10.855Z,9.68
2022-10-13T19:01:38.465Z,11.80
2022-10-13T19:04:05.992Z,9.88
2022-10-13T19:06:32.901Z,9.68
2022-10-13T19:09:05.532Z,10.40
2022-10-13T19:11:35.305Z,10.82
2022-10-13T19:14:03.041Z,10.98
2022-10-13T19:16:31.736Z,11.15
2022-10-13T19:18:58.411Z,11.10
2022-10-13T19:21:24.925Z,10.73
2022-10-13T19:23:51.677Z,10.70
2022-10-13T19:26:24.248Z,11.88
2022-10-13T19:28:55.304Z,11.07
2022-10-13T19:31:24.101Z,12.40
2022-10-13T19:33:52.393Z,11.90
2022-10-13T19:36:30.125Z,11.95
2022-10-13T19:39:01.736Z,11.73
2022-10-13T19:41:30.676Z,12.05
2022-10-13T19:43:58.106Z,12.30
2022-10-13T19:46:34.400Z,11.95
2022-10-13T19:49:00.941Z,11.57
2022-10-13T19:51:27.358Z,11.48
2022-10-13T19:53:53.834Z,14.07
2022-10-13T19:56:26.468Z,11.43
2022-10-13T19:58:53.753Z,11.18
2022-10-13T20:01:22.287Z,10.68
2022-10-13T20:03:49.030Z,11.05
2022-10-13T20:06:17.017Z,11.82
2022-10-13T20:08:44.841Z,11.23
2022-10-13T20:11:15.727Z,11.07
2022-10-13T20:13:44.921Z,12.10
2022-10-13T20:16:14.121Z,11.57
2022-10-13T20:18:41.596Z,11.55
2022-10-13T20:21:10.390Z,12.35
2022-10-13T20:23:37.066Z,11.55
2022-10-13T20:26:04.388Z,12.30
2022-10-13T20:28:39.243Z,12.77
2022-10-13T20:31:08.562Z,12.88
2022-10-13T20:33:35.123Z,11.20
2022-10-13T20:36:04.172Z,13.30
2022-10-13T20:38:32.025Z,13.40
2022-10-13T20:41:17.009Z,13.93
2022-10-13T20:43:44.819Z,13.43
2022-10-13T20:46:11.911Z,12.18
2022-10-13T20:49:05.578Z,13.40
2022-10-13T20:51:26.810Z,12.25
2022-10-13T20:53:53.321Z,12.57
2022-10-13T20:56:22.501Z,13.32
2022-10-13T20:58:49.765Z,13.95
2022-10-13T21:01:17.334Z,13.55
2022-10-13T21:03:44.427Z,13.23
2022-10-13T21:06:13.943Z,12.68
2022-10-13T21:08:43.933Z,12.43
2022-10-13T21:11:13.353Z,12.50
2022-10-13T21:13:40.899Z,12.43
2022-10-13T21:16:13.544Z,12.30
2022-10-13T21:18:40.777Z,12.77
2022-10-13T21:21:09.481Z,13.35
2022-10-13T21:23:36.732Z,12.73
2022-10-13T21:26:04.940Z,13.98
2022-10-13T21:28:32.553Z,14.63
2022-10-13T21:31:07.177Z,13.25
2022-10-13T21:33:35.791Z,14.68
2022-10-13T21:36:10.988Z,14.13
2022-10-13T21:38:39.337Z,13.98
2022-10-13T21:41:08.143Z,14.93
2022-10-13T21:43:34.925Z,13.57
2022-10-13T21:46:20.980Z,15.27
2022-10-13T21:48:53.897Z,14.50
2022-10-13T21:51:23.499Z,14.23
2022-10-13T21:53:55.597Z,12.55
2022-10-13T21:56:23.321Z,14.43
2022-10-13T21:58:50.110Z,11.93
2022-10-13T22:01:18.082Z,11.50
2022-10-13T22:03:46.965Z,10.57
2022-10-13T22:06:18.715Z,9.82
2022-10-13T22:08:47.914Z,9.75
2022-10-13T22:11:20.284Z,9.73
2022-10-13T22:13:46.807Z,10.00
2022-10-13T22:16:16.742Z,9.90
2022-10-13T22:18:45.518Z,9.77
2022-10-13T22:21:20.619Z,10.05
2022-10-13T22:23:47.489Z,9.35
2022-10-13T22:26:16.650Z,9.00
2022-10-13T22:28:44.678Z,9.98
2022-10-13T22:31:12.918Z,9.10
2022-10-13T22:33:40.966Z,8.50
2022-10-13T22:36:14.456Z,8.77
2022-10-13T22:38:41.465Z,9.50
2022-10-13T22:41:08.638Z,8.90
2022-10-13T22:43:36.485Z,9.45
2022-10-13T22:46:13.091Z,8.77
2022-10-13T22:48:41.092Z,8.63
2022-10-13T22:51:16.081Z,8.65
2022-10-13T22:53:43.151Z,8.27
2022-10-13T22:56:13.012Z,8.38
2022-10-13T22:58:39.729Z,9.20
2022-10-13T23:01:08.830Z,7.30
2022-10-13T23:03:36.318Z,8.32
2022-10-13T23:06:03.574Z,8.05
2022-10-13T23:08:30.877Z,8.35
2022-10-13T23:10:57.860Z,8.38
2022-10-13T23:13:24.976Z,8.68
2022-10-13T23:15:52.905Z,7.95
2022-10-13T23:18:24.265Z,8.90
2022-10-13T23:20:54.425Z,7.88
2022-10-13T23:23:25.814Z,8.85
2022-10-13T23:25:52.231Z,8.65
2022-10-13T23:28:18.739Z,8.15
2022-10-13T23:30:45.155Z,8.38
2022-10-13T23:33:11.726Z,8.60
2022-10-13T23:35:39.476Z,7.65
2022-10-13T23:38:05.988Z,7.57
2022-10-13T23:40:34.519Z,7.20
2022-10-13T23:43:00.953Z,8.30
2022-10-13T23:45:27.374Z,7.47
2022-10-13T23:47:53.769Z,7.75
2022-10-13T23:50:21.636Z,7.40
2022-10-13T23:52:48.089Z,6.55
2022-10-13T23:55:14.878Z,6.47
2022-10-13T23:57:41.259Z,6.18
